Time;durP1;ratioP1;P1;durP2;ratioP2;P2;SDS_P1;SDS_P2;PMS_P1;PMS_P2;Temp;Humidity;BMP_temperature;BMP_pressure;BME280_temperature;BME280_humidity;BME280_pressure;Samples;Min_cycle;Max_cycle;Signal;HPM_P1;HPM_P2
2023/10/12 00:01:38;;;;;;;5.17;2.83;;;;;;;-144.99;100.00;67352.69;5038049;28;20214;-85
2023/10/12 00:04:08;;;;;;;1.87;1.77;;;;;;;-144.99;100.00;67352.69;5038688;28;20693;-86
2023/10/12 00:06:37;;;;;;;2.73;2.10;;;;;;;-144.99;100.00;67352.69;5038163;28;20263;-84
2023/10/12 00:09:16;;;;;;;4.60;2.40;;;;;;;-144.99;100.00;67352.69;5034252;28;20206;-87
2023/10/12 00:11:46;;;;;;;4.17;2.70;;;;;;;-144.99;100.00;67352.69;5033706;28;20653;-83
2023/10/12 00:14:11;;;;;;;7.13;2.60;;;;;;;-144.99;100.00;67352.69;5033866;28;20191;-85
2023/10/12 00:16:36;;;;;;;7.50;2.10;;;;;;;-144.99;100.00;67352.69;5034275;28;20317;-85
2023/10/12 00:19:02;;;;;;;0.67;0.67;;;;;;;-144.99;100.00;67352.69;5034053;28;20188;-85
2023/10/12 00:21:27;;;;;;;2.93;2.47;;;;;;;-144.99;100.00;67352.69;5032707;28;20196;-85
2023/10/12 00:23:53;;;;;;;1.50;1.40;;;;;;;-144.99;100.00;67352.69;5033286;28;20203;-84
2023/10/12 00:26:18;;;;;;;1.23;1.17;;;;;;;-144.99;100.00;67352.69;5032553;28;20246;-84
2023/10/12 00:28:44;;;;;;;2.73;1.60;;;;;;;-144.99;100.00;67352.69;5032318;28;20189;-86
2023/10/12 00:31:19;;;;;;;1.63;1.53;;;;;;;-144.99;100.00;67352.69;5033425;28;20176;-85
2023/10/12 00:33:48;;;;;;;3.73;2.00;;;;;;;-144.99;100.00;67352.69;5032672;28;20210;-85
2023/10/12 00:36:21;;;;;;;0.20;0.10;;;;;;;-144.99;100.00;67352.69;5032082;28;20222;-85
2023/10/12 00:38:48;;;;;;;1.10;1.00;;;;;;;-144.99;100.00;67352.69;5032845;28;20222;-85
2023/10/12 00:41:14;;;;;;;2.20;1.23;;;;;;;-144.99;100.00;67352.69;5031739;28;20191;-85
2023/10/12 00:44:29;;;;;;;2.37;2.17;;;;;;;-144.99;100.00;67352.69;5031133;28;20767;-85
2023/10/12 00:49:26;;;;;;;2.30;1.27;;;;;;;-144.99;100.00;67352.69;5032870;28;20230;-85
2023/10/12 00:51:54;;;;;;;1.37;1.17;;;;;;;-144.99;100.00;67352.69;5032131;28;20183;-84
2023/10/12 00:54:25;;;;;;;1.80;1.63;;;;;;;-144.99;100.00;67352.69;5030999;28;20202;-86
2023/10/12 00:56:55;;;;;;;7.77;3.83;;;;;;;-144.99;100.00;67352.69;5031720;28;20218;-85
2023/10/12 00:59:21;;;;;;;4.20;2.30;;;;;;;-144.99;100.00;67352.69;5031850;28;20179;-85
2023/10/12 01:01:50;;;;;;;9.27;2.60;;;;;;;-144.99;100.00;67352.69;5032566;28;20179;-83
2023/10/12 01:04:16;;;;;;;4.00;3.27;;;;;;;-144.99;100.00;67352.69;5032452;28;20234;-84
2023/10/12 01:06:52;;;;;;;1.93;1.77;;;;;;;-144.99;100.00;67352.69;5032180;28;20259;-85
2023/10/12 01:09:20;;;;;;;7.40;2.80;;;;;;;-144.99;100.00;67352.69;5032541;28;20179;-84
2023/10/12 01:12:00;;;;;;;1.73;1.63;;;;;;;-144.99;100.00;67352.69;5032072;28;20238;-84
2023/10/12 01:14:31;;;;;;;8.03;3.00;;;;;;;-144.99;100.00;67352.69;5033483;28;20194;-85
2023/10/12 01:17:03;;;;;;;3.90;2.63;;;;;;;-144.99;100.00;67352.69;5026329;28;20254;-85
2023/10/12 01:19:33;;;;;;;4.00;3.17;;;;;;;-144.99;100.00;67352.69;5036903;28;20620;-87
2023/10/12 01:22:13;;;;;;;3.83;2.77;;;;;;;-144.99;100.00;67352.69;5027244;28;20184;-85
2023/10/12 01:27:16;;;;;;;3.33;2.23;;;;;;;-144.99;100.00;67352.69;5037729;28;20198;-85
2023/10/12 01:29:41;;;;;;;6.83;2.33;;;;;;;-144.99;100.00;67352.69;5036293;28;20183;-85
2023/10/12 01:34:36;;;;;;;4.63;2.40;;;;;;;-144.99;100.00;67352.69;5036542;28;20652;-85
2023/10/12 01:37:03;;;;;;;4.43;1.63;;;;;;;-144.99;100.00;67352.69;5034858;28;20176;-85
2023/10/12 01:39:28;;;;;;;1.60;1.50;;;;;;;-144.99;100.00;67352.69;5034544;28;20188;-85
2023/10/12 01:41:56;;;;;;;5.90;3.30;;;;;;;-144.99;100.00;67352.69;5036095;28;20230;-86
2023/10/12 01:44:22;;;;;;;2.03;1.90;;;;;;;-144.99;100.00;67352.69;5034440;28;20784;-85
2023/10/12 01:46:49;;;;;;;1.10;1.03;;;;;;;-144.99;100.00;67352.69;5034395;28;20676;-86
2023/10/12 01:49:17;;;;;;;1.73;1.20;;;;;;;-144.99;100.00;67352.69;5035605;28;20214;-85
2023/10/12 01:51:45;;;;;;;0.27;0.27;;;;;;;-144.99;100.00;67352.69;5034605;28;20207;-84
2023/10/12 01:54:22;;;;;;;2.40;2.20;;;;;;;-144.99;100.00;67352.69;5035425;28;20612;-86
2023/10/12 01:56:48;;;;;;;1.23;1.10;;;;;;;-144.99;100.00;67352.69;5035393;28;20175;-85
2023/10/12 01:59:19;;;;;;;10.70;2.67;;;;;;;-144.99;100.00;67352.69;5034233;28;20192;-85
2023/10/12 02:01:46;;;;;;;3.80;2.23;;;;;;;-144.99;100.00;67352.69;5035204;28;20176;-83
2023/10/12 02:04:13;;;;;;;2.77;1.57;;;;;;;-144.99;100.00;67352.69;5034066;28;20211;-84
2023/10/12 02:06:39;;;;;;;0.83;0.70;;;;;;;-144.99;100.00;67352.69;5034247;28;20215;-84
2023/10/12 02:09:10;;;;;;;1.03;1.00;;;;;;;-144.99;100.00;67352.69;5035480;28;20204;-83
2023/10/12 02:11:42;;;;;;;8.97;2.33;;;;;;;-144.99;100.00;67352.69;5034689;28;20226;-84
2023/10/12 02:14:11;;;;;;;1.07;0.93;;;;;;;-144.99;100.00;67352.69;5033842;28;20267;-84
2023/10/12 02:16:39;;;;;;;2.13;1.87;;;;;;;-144.99;100.00;67352.69;5033779;28;20630;-85
2023/10/12 02:19:05;;;;;;;1.80;0.77;;;;;;;-144.99;100.00;67352.69;5036109;28;20547;-85
2023/10/12 02:21:38;;;;;;;1.83;1.73;;;;;;;-144.99;100.00;67352.69;5033297;28;20187;-87
2023/10/12 02:26:37;;;;;;;1.50;1.40;;;;;;;-144.99;100.00;67352.69;5034364;28;20183;-84
2023/10/12 02:31:39;;;;;;;2.43;1.23;;;;;;;-144.99;100.00;67352.69;5034985;28;20268;-84
2023/10/12 02:34:14;;;;;;;3.07;2.87;;;;;;;-144.99;100.00;67352.69;5033796;28;20200;-84
2023/10/12 02:36:40;;;;;;;2.03;1.93;;;;;;;-144.99;100.00;67352.69;5034582;28;20191;-85
2023/10/12 02:39:15;;;;;;;3.47;2.47;;;;;;;-144.99;100.00;67352.69;5034489;28;20596;-84
2023/10/12 02:41:45;;;;;;;3.27;3.03;;;;;;;-144.99;100.00;67352.69;5034603;28;20176;-84
2023/10/12 02:44:18;;;;;;;1.53;0.93;;;;;;;-144.99;100.00;67352.69;5033151;28;20767;-84
2023/10/12 02:46:52;;;;;;;3.13;2.93;;;;;;;-144.99;100.00;67352.69;5034762;28;20176;-84
2023/10/12 02:49:21;;;;;;;1.10;1.00;;;;;;;-144.99;100.00;67352.69;5034665;28;20203;-84
2023/10/12 02:51:50;;;;;;;4.17;1.20;;;;;;;-144.99;100.00;67352.69;5033260;28;20186;-84
2023/10/12 02:54:16;;;;;;;1.53;1.43;;;;;;;-144.99;100.00;67352.69;5033194;28;20747;-84
2023/10/12 02:56:43;;;;;;;0.80;0.80;;;;;;;-144.99;100.00;67352.69;5033375;28;20183;-84
2023/10/12 02:59:08;;;;;;;2.43;2.23;;;;;;;-144.99;100.00;67352.69;5034644;28;20184;-84
2023/10/12 03:01:38;;;;;;;1.13;0.93;;;;;;;-144.99;100.00;67352.69;5033038;28;20186;-83
2023/10/12 03:04:05;;;;;;;0.43;0.43;;;;;;;-144.99;100.00;67352.69;5032812;28;20211;-84
2023/10/12 03:06:32;;;;;;;1.67;1.57;;;;;;;-144.99;100.00;67352.69;5034414;28;20188;-86
2023/10/12 03:11:27;;;;;;;2.93;2.80;;;;;;;-144.99;100.00;67352.69;5034937;28;20233;-84
2023/10/12 03:14:13;;;;;;;1.03;0.53;;;;;;;-144.99;100.00;67352.69;5034072;28;20200;-84
2023/10/12 03:16:42;;;;;;;1.80;0.73;;;;;;;-144.99;100.00;67352.69;5034563;28;20227;-84
2023/10/12 03:19:47;;;;;;;0.43;0.43;;;;;;;-144.99;100.00;67352.69;5033581;28;20190;-86
2023/10/12 03:22:16;;;;;;;0.70;0.70;;;;;;;-144.99;100.00;67352.69;5026343;28;20206;-85
2023/10/12 03:24:44;;;;;;;6.50;1.43;;;;;;;-144.99;100.00;67352.69;5032828;28;20206;-84
2023/10/12 03:27:11;;;;;;;0.87;0.87;;;;;;;-144.99;100.00;67352.69;5032955;28;20317;-85
2023/10/12 03:29:43;;;;;;;1.13;1.07;;;;;;;-144.99;100.00;67352.69;5033398;28;20180;-85
2023/10/12 03:32:12;;;;;;;1.03;1.03;;;;;;;-144.99;100.00;67352.69;5032733;28;20661;-84
2023/10/12 03:35:22;;;;;;;2.37;2.27;;;;;;;-144.99;100.00;67352.69;5032858;28;20645;-84
2023/10/12 03:37:44;;;;;;;2.03;1.93;;;;;;;-144.99;100.00;67352.69;5032843;28;20206;-84
2023/10/12 03:42:57;;;;;;;9.83;3.27;;;;;;;-144.99;100.00;67352.69;5032613;28;20250;-85
2023/10/12 03:45:33;;;;;;;17.37;2.10;;;;;;;-144.99;100.00;67352.69;5031848;28;20180;-85
2023/10/12 03:48:15;;;;;;;2.13;1.80;;;;;;;-144.99;100.00;67352.69;5023941;28;20187;-85
2023/10/12 03:53:34;;;;;;;3.13;2.87;;;;;;;-144.99;100.00;67352.69;5030188;28;20238;-85
2023/10/12 03:56:01;;;;;;;5.23;1.50;;;;;;;-144.99;100.00;67352.69;5024427;28;20186;-85
2023/10/12 03:58:27;;;;;;;0.67;0.67;;;;;;;-144.99;100.00;67352.69;5032332;28;20555;-86
2023/10/12 04:01:12;;;;;;;3.03;2.40;;;;;;;-144.99;100.00;67352.69;5031908;28;20195;-86
2023/10/12 04:03:39;;;;;;;17.63;2.37;;;;;;;-144.99;100.00;67352.69;5031590;28;20231;-86
2023/10/12 04:06:15;;;;;;;3.70;3.40;;;;;;;-144.99;100.00;67352.69;5032081;28;20187;-85
2023/10/12 04:08:49;;;;;;;3.00;2.70;;;;;;;-144.99;100.00;67352.69;5032056;28;20192;-85
2023/10/12 04:21:16;;;;;;;3.00;2.73;;;;;;;-144.99;100.00;67352.69;5032999;28;20186;-86
2023/10/12 04:29:07;;;;;;;0.83;0.83;;;;;;;-144.99;100.00;67352.69;5029377;28;20197;-88
2023/10/12 04:41:39;;;;;;;1.97;1.80;;;;;;;-144.99;100.00;67352.69;5038658;28;20257;-84
2023/10/12 04:47:06;;;;;;;4.63;2.30;;;;;;;-144.99;100.00;67352.69;5039161;28;20274;-86
2023/10/12 04:54:49;;;;;;;1.93;1.83;;;;;;;-144.99;100.00;67352.69;5043124;28;20556;-85
2023/10/12 04:57:15;;;;;;;3.97;2.43;;;;;;;-144.99;100.00;67352.69;5042578;28;20183;-86
2023/10/12 04:59:50;;;;;;;10.80;4.13;;;;;;;-144.99;100.00;67352.69;5042720;28;20188;-86
2023/10/12 05:02:28;;;;;;;3.97;2.47;;;;;;;-144.99;100.00;67352.69;5042221;28;20539;-87
2023/10/12 05:09:51;;;;;;;5.23;4.73;;;;;;;-144.99;100.00;67352.69;5043686;28;20184;-88
2023/10/12 05:12:16;;;;;;;2.80;2.43;;;;;;;-144.99;100.00;67352.69;5043812;28;20551;-86
2023/10/12 05:14:42;;;;;;;1.10;1.03;;;;;;;-144.99;100.00;67352.69;5042242;28;20183;-88
2023/10/12 05:17:10;;;;;;;4.83;3.40;;;;;;;-144.99;100.00;67352.69;5042293;28;20183;-87
2023/10/12 05:19:36;;;;;;;2.20;2.00;;;;;;;-144.99;100.00;67352.69;5042087;28;20255;-86
2023/10/12 05:22:02;;;;;;;5.50;4.43;;;;;;;-144.99;100.00;67352.69;5041115;28;20215;-86
2023/10/12 05:24:27;;;;;;;5.70;4.90;;;;;;;-144.99;100.00;67352.69;5042042;28;20208;-86
2023/10/12 05:27:09;;;;;;;7.97;5.27;;;;;;;-144.99;100.00;67352.69;5043124;28;20187;-87
2023/10/12 05:29:38;;;;;;;5.43;4.90;;;;;;;-144.99;100.00;67352.69;5042862;28;20191;-88
2023/10/12 05:32:18;;;;;;;4.23;3.93;;;;;;;-144.99;100.00;67352.69;5043614;28;20187;-86
2023/10/12 05:39:46;;;;;;;1.57;1.47;;;;;;;-144.99;100.00;67352.69;5044363;28;20182;-86
2023/10/12 05:42:15;;;;;;;4.23;3.30;;;;;;;-144.99;100.00;67352.69;5042240;28;20203;-88
2023/10/12 05:44:43;;;;;;;3.80;3.50;;;;;;;-144.99;100.00;67352.69;5043404;28;20219;-87
2023/10/12 05:47:12;;;;;;;6.00;3.80;;;;;;;-144.99;100.00;67352.69;5049189;28;20187;-89
2023/10/12 05:49:41;;;;;;;3.80;3.50;;;;;;;-144.99;100.00;67352.69;5058719;28;20605;-89
2023/10/12 05:52:08;;;;;;;2.87;2.30;;;;;;;-144.99;100.00;67352.69;5059196;28;20163;-89
2023/10/12 05:54:34;;;;;;;7.40;2.63;;;;;;;-144.99;100.00;67352.69;5058674;28;20198;-89
2023/10/12 05:57:06;;;;;;;16.90;2.43;;;;;;;-144.99;100.00;67352.69;5054296;28;20658;-86
2023/10/12 05:59:31;;;;;;;3.17;2.97;;;;;;;-144.99;100.00;67352.69;5033683;28;20275;-86
2023/10/12 06:01:56;;;;;;;4.17;3.87;;;;;;;-144.99;100.00;67352.69;5034503;28;20275;-86
2023/10/12 06:04:22;;;;;;;4.10;3.13;;;;;;;-144.99;100.00;67352.69;5032196;28;20211;-86
2023/10/12 06:06:48;;;;;;;2.37;2.20;;;;;;;-144.99;100.00;67352.69;5034211;28;20180;-86
2023/10/12 06:09:20;;;;;;;2.07;1.97;;;;;;;-144.99;100.00;67352.69;5033614;28;20183;-86
2023/10/12 06:11:47;;;;;;;1.03;1.03;;;;;;;-144.99;100.00;67352.69;5035297;28;20214;-86
2023/10/12 06:14:14;;;;;;;7.10;3.97;;;;;;;-144.99;100.00;67352.69;5035177;28;20199;-87
2023/10/12 06:16:40;;;;;;;3.40;3.13;;;;;;;-144.99;100.00;67352.69;5034951;28;20194;-86
2023/10/12 06:19:18;;;;;;;9.07;5.47;;;;;;;-144.99;100.00;67352.69;5035225;28;20229;-84
2023/10/12 06:21:44;;;;;;;5.47;4.97;;;;;;;-144.99;100.00;67352.69;5035594;28;20673;-86
2023/10/12 06:24:12;;;;;;;1.97;1.87;;;;;;;-144.99;100.00;67352.69;5035451;28;20210;-86
2023/10/12 06:26:38;;;;;;;2.67;2.47;;;;;;;-144.99;100.00;67352.69;5033941;28;20179;-85
2023/10/12 06:29:07;;;;;;;3.87;3.57;;;;;;;-144.99;100.00;67352.69;5035251;28;20180;-86
2023/10/12 06:31:33;;;;;;;4.43;4.03;;;;;;;-144.99;100.00;67352.69;5034018;28;20188;-86
2023/10/12 06:34:01;;;;;;;4.27;3.87;;;;;;;-144.99;100.00;67352.69;5034368;28;20223;-86
2023/10/12 06:36:48;;;;;;;4.03;2.93;;;;;;;-144.99;100.00;67352.69;5034863;28;20230;-88
2023/10/12 06:47:23;;;;;;;1.90;1.80;;;;;;;-144.99;100.00;67352.69;5031317;28;20783;-86
2023/10/12 06:49:46;;;;;;;0.20;0.20;;;;;;;-144.99;100.00;67352.69;5034104;28;20191;-85
2023/10/12 06:52:14;;;;;;;0.07;0.07;;;;;;;-144.99;100.00;67352.69;5032466;28;20184;-87
2023/10/12 06:54:39;;;;;;;0.67;0.47;;;;;;;-144.99;100.00;67352.69;5033077;28;20650;-86
2023/10/12 07:02:28;;;;;;;0.00;0.00;;;;;;;-144.99;100.00;67352.69;5034483;28;20215;-86
2023/10/12 07:04:54;;;;;;;0.87;0.73;;;;;;;-144.99;100.00;67352.69;5033052;28;20227;-86
2023/10/12 07:07:27;;;;;;;0.00;0.00;;;;;;;-144.99;100.00;67352.69;5033218;28;20267;-87
2023/10/12 07:13:25;;;;;;;0.90;0.83;;;;;;;-144.99;100.00;67352.69;5034516;28;20195;-86
2023/10/12 07:15:32;;;;;;;0.00;0.00;;;;;;;-144.99;100.00;67352.69;5031578;28;20237;-87
2023/10/12 07:18:05;;;;;;;0.30;0.20;;;;;;;-144.99;100.00;67352.69;5026036;28;20306;-86
2023/10/12 07:23:14;;;;;;;0.20;0.20;;;;;;;-144.99;100.00;67352.69;5036525;28;20712;-87
2023/10/12 07:25:43;;;;;;;0.00;0.00;;;;;;;-144.99;100.00;67352.69;5030407;28;20234;-85
2023/10/12 07:28:16;;;;;;;0.27;0.27;;;;;;;-144.99;100.00;67352.69;5030009;28;20653;-86
2023/10/12 07:31:05;;;;;;;0.00;0.00;;;;;;;-144.99;100.00;67352.69;5034514;28;20202;-84
2023/10/12 07:33:32;;;;;;;0.00;0.00;;;;;;;-144.99;100.00;67352.69;5038785;28;20206;-85
2023/10/12 07:36:07;;;;;;;0.27;0.20;;;;;;;-144.99;100.00;67352.69;5033970;28;20186;-83
2023/10/12 07:38:36;;;;;;;0.00;0.00;;;;;;;-144.99;100.00;67352.69;5039341;28;20221;-84
2023/10/12 07:41:01;;;;;;;0.30;0.30;;;;;;;-144.99;100.00;67352.69;5031251;28;20685;-86
2023/10/12 07:43:31;;;;;;;0.00;0.00;;;;;;;-144.99;100.00;67352.69;5032609;28;20219;-86
2023/10/12 07:46:24;;;;;;;0.00;0.00;;;;;;;-144.99;100.00;67352.69;5034524;28;20191;-86
2023/10/12 07:48:51;;;;;;;0.00;0.00;;;;;;;-144.99;100.00;67352.69;5043762;28;20176;-86
2023/10/12 07:51:24;;;;;;;0.00;0.00;;;;;;;-144.99;100.00;67352.69;5035358;28;20180;-87
2023/10/12 07:53:57;;;;;;;0.23;0.23;;;;;;;-144.99;100.00;67352.69;5032224;28;20195;-89
2023/10/12 07:56:23;;;;;;;0.00;0.00;;;;;;;-144.99;100.00;67352.69;5033008;28;20712;-86
2023/10/12 07:58:57;;;;;;;0.10;0.10;;;;;;;-144.99;100.00;67352.69;5031441;28;20180;-84
2023/10/12 08:03:52;;;;;;;0.00;0.00;;;;;;;-144.99;100.00;67352.69;5032617;28;20322;-86
2023/10/12 08:06:27;;;;;;;0.10;0.10;;;;;;;-144.99;100.00;67352.69;5031774;28;20646;-87
2023/10/12 08:08:52;;;;;;;0.00;0.00;;;;;;;-144.99;100.00;67352.69;5027917;28;20605;-85
2023/10/12 08:11:31;;;;;;;0.00;0.00;;;;;;;-144.99;100.00;67352.69;5032432;28;20383;-85
2023/10/12 08:14:31;;;;;;;0.00;0.00;;;;;;;-144.99;100.00;67352.69;5032858;28;20700;-86
2023/10/12 08:19:55;;;;;;;0.03;0.03;;;;;;;-144.99;100.00;67352.69;5030045;28;20205;-86
2023/10/12 08:22:26;;;;;;;0.00;0.00;;;;;;;-144.99;100.00;67352.69;5030586;28;20638;-86
2023/10/12 08:24:56;;;;;;;0.00;0.00;;;;;;;-144.99;100.00;67352.69;5030357;28;20208;-86
2023/10/12 08:27:23;;;;;;;0.00;0.00;;;;;;;-144.99;100.00;67352.69;5034060;28;20188;-86
2023/10/12 08:37:26;;;;;;;0.00;0.00;;;;;;;-144.99;100.00;67352.69;5036705;28;20193;-85
2023/10/12 08:42:37;;;;;;;0.00;0.00;;;;;;;-144.99;100.00;67352.69;5035823;28;20317;-85
2023/10/12 08:45:15;;;;;;;0.00;0.00;;;;;;;-144.99;100.00;67352.69;5031733;28;20210;-85
2023/10/12 08:47:48;;;;;;;0.37;0.37;;;;;;;-144.99;100.00;67352.69;5037083;28;20180;-86
2023/10/12 08:52:50;;;;;;;0.00;0.00;;;;;;;-144.99;100.00;67352.69;5043859;28;20684;-86
2023/10/12 08:55:19;;;;;;;0.00;0.00;;;;;;;-144.99;100.00;67352.69;5040678;28;20723;-86
2023/10/12 08:58:01;;;;;;;0.03;0.03;;;;;;;-144.99;100.00;67352.69;5039141;28;20545;-84
2023/10/12 09:05:51;;;;;;;0.00;0.00;;;;;;;-144.99;100.00;67352.69;5034093;28;20258;-87
2023/10/12 09:13:27;;;;;;;0.00;0.00;;;;;;;-144.99;100.00;67352.69;5035877;28;20684;-86
2023/10/12 09:15:57;;;;;;;0.00;0.00;;;;;;;-144.99;100.00;67352.69;5035791;28;20636;-87
2023/10/12 09:18:32;;;;;;;0.10;0.10;;;;;;;-144.99;100.00;67352.69;5035614;28;20184;-86
2023/10/12 09:23:29;;;;;;;0.10;0.10;;;;;;;-144.99;100.00;67352.69;5035341;28;20214;-87
2023/10/12 09:28:42;;;;;;;0.50;0.50;;;;;;;-144.99;100.00;67352.69;5036131;28;20172;-86
2023/10/12 09:31:13;;;;;;;0.00;0.00;;;;;;;-144.99;100.00;67352.69;5034497;28;20233;-88
2023/10/12 09:33:45;;;;;;;0.00;0.00;;;;;;;-144.99;100.00;67352.69;5034160;28;20707;-87
2023/10/12 09:36:10;;;;;;;0.00;0.00;;;;;;;-144.99;100.00;67352.69;5034303;28;20211;-89
2023/10/12 09:38:38;;;;;;;0.00;0.00;;;;;;;-144.99;100.00;67352.69;5033074;28;20238;-87
2023/10/12 09:41:08;;;;;;;0.00;0.00;;;;;;;-144.99;100.00;67352.69;5034587;28;20211;-87
2023/10/12 09:43:39;;;;;;;0.00;0.00;;;;;;;-144.99;100.00;67352.69;5033787;28;20225;-86
2023/10/12 09:46:07;;;;;;;0.00;0.00;;;;;;;-144.99;100.00;67352.69;5033759;28;20187;-87
2023/10/12 09:48:38;;;;;;;0.00;0.00;;;;;;;-144.99;100.00;67352.69;5035171;28;20218;-87
2023/10/12 09:51:15;;;;;;;0.00;0.00;;;;;;;-144.99;100.00;67352.69;5032948;28;20650;-87
2023/10/12 09:53:57;;;;;;;0.00;0.00;;;;;;;-144.99;100.00;67352.69;5035359;28;20199;-86
2023/10/12 09:56:28;;;;;;;0.00;0.00;;;;;;;-144.99;100.00;67352.69;5035135;28;20197;-87
2023/10/12 10:06:51;;;;;;;0.00;0.00;;;;;;;-144.99;100.00;67352.69;5037243;28;20676;-86
2023/10/12 10:11:57;;;;;;;0.00;0.00;;;;;;;-144.99;100.00;67352.69;5036471;28;20179;-86
2023/10/12 10:14:26;;;;;;;0.00;0.00;;;;;;;-144.99;100.00;67352.69;5035033;28;20322;-86
2023/10/12 10:16:58;;;;;;;0.00;0.00;;;;;;;-144.99;100.00;67352.69;5034696;28;20677;-87
2023/10/12 10:19:28;;;;;;;0.00;0.00;;;;;;;-144.99;100.00;67352.69;5035601;28;20187;-86
2023/10/12 10:22:05;;;;;;;0.00;0.00;;;;;;;-144.99;100.00;67352.69;5035454;28;20187;-86
2023/10/12 10:24:55;;;;;;;0.00;0.00;;;;;;;-144.99;100.00;67352.69;5035320;28;20207;-88
2023/10/12 10:27:27;;;;;;;0.00;0.00;;;;;;;-144.99;100.00;67352.69;5030567;28;20392;-86
2023/10/12 10:29:56;;;;;;;0.00;0.00;;;;;;;-144.99;100.00;67352.69;5034892;28;20226;-86
2023/10/12 10:32:38;;;;;;;0.00;0.00;;;;;;;-144.99;100.00;67352.69;5034748;28;20211;-86
2023/10/12 10:35:13;;;;;;;0.00;0.00;;;;;;;-144.99;100.00;67352.69;5029016;28;20194;-86
2023/10/12 10:37:59;;;;;;;0.00;0.00;;;;;;;-144.99;100.00;67352.69;5034789;28;20649;-86
2023/10/12 10:40:48;;;;;;;0.00;0.00;;;;;;;-144.99;100.00;67352.69;5033686;28;20189;-86
2023/10/12 10:43:17;;;;;;;0.00;0.00;;;;;;;-144.99;100.00;67352.69;5027653;28;20217;-87
2023/10/12 10:45:56;;;;;;;0.00;0.00;;;;;;;-144.99;100.00;67352.69;5033219;28;20559;-86
2023/10/12 10:48:27;;;;;;;0.00;0.00;;;;;;;-144.99;100.00;67352.69;5032698;28;20182;-86
2023/10/12 10:50:53;;;;;;;0.00;0.00;;;;;;;-144.99;100.00;67352.69;5032873;28;20230;-86
2023/10/12 10:53:19;;;;;;;0.00;0.00;;;;;;;-144.99;100.00;67352.69;5032940;28;20207;-87
2023/10/12 10:55:47;;;;;;;0.00;0.00;;;;;;;-144.99;100.00;67352.69;5033189;28;20563;-86
2023/10/12 10:58:14;;;;;;;0.00;0.00;;;;;;;-144.99;100.00;67352.69;5032907;28;20183;-86
2023/10/12 11:00:45;;;;;;;0.00;0.00;;;;;;;-144.99;100.00;67352.69;5030406;28;20336;-86
2023/10/12 11:03:17;;;;;;;0.00;0.00;;;;;;;-144.99;100.00;67352.69;5032447;28;20691;-86
2023/10/12 11:05:46;;;;;;;0.00;0.00;;;;;;;-144.99;100.00;67352.69;5033706;28;20184;-86
2023/10/12 11:08:26;;;;;;;0.00;0.00;;;;;;;-144.99;100.00;67352.69;5032278;28;20188;-86
2023/10/12 11:13:38;;;;;;;0.00;0.00;;;;;;;-144.99;100.00;67352.69;5033163;28;20684;-85
2023/10/12 11:16:20;;;;;;;0.00;0.00;;;;;;;-144.99;100.00;67352.69;5031808;28;20188;-87
2023/10/12 11:18:51;;;;;;;0.00;0.00;;;;;;;-144.99;100.00;67352.69;5032409;28;20565;-87
2023/10/12 11:21:17;;;;;;;0.00;0.00;;;;;;;-144.99;100.00;67352.69;5031915;28;20190;-88
2023/10/12 11:23:45;;;;;;;0.00;0.00;;;;;;;-144.99;100.00;67352.69;5031492;28;20196;-87
2023/10/12 11:26:17;;;;;;;0.00;0.00;;;;;;;-144.99;100.00;67352.69;5032152;28;20232;-86
2023/10/12 11:28:45;;;;;;;0.00;0.00;;;;;;;-144.99;100.00;67352.69;5031970;28;20179;-86
2023/10/12 11:31:20;;;;;;;0.00;0.00;;;;;;;-144.99;100.00;67352.69;5032020;28;20180;-85
2023/10/12 11:33:49;;;;;;;0.00;0.00;;;;;;;-144.99;100.00;67352.69;5031842;28;20206;-87
2023/10/12 11:36:23;;;;;;;0.00;0.00;;;;;;;-144.99;100.00;67352.69;5032066;28;20320;-86
2023/10/12 11:38:57;;;;;;;0.00;0.00;;;;;;;-144.99;100.00;67352.69;5031638;28;20191;-86
2023/10/12 11:41:22;;;;;;;0.00;0.00;;;;;;;-144.99;100.00;67352.69;5031700;28;20190;-86
2023/10/12 11:43:57;;;;;;;0.00;0.00;;;;;;;-144.99;100.00;67352.69;5031160;28;20207;-87
2023/10/12 11:46:24;;;;;;;0.00;0.00;;;;;;;-144.99;100.00;67352.69;5033294;28;20182;-86
2023/10/12 11:49:10;;;;;;;0.00;0.00;;;;;;;-144.99;100.00;67352.69;5032919;28;20175;-85
2023/10/12 11:51:50;;;;;;;0.00;0.00;;;;;;;-144.99;100.00;67352.69;5031750;28;20187;-87
2023/10/12 11:54:19;;;;;;;0.00;0.00;;;;;;;-144.99;100.00;67352.69;5031714;28;20636;-87
2023/10/12 11:56:51;;;;;;;0.00;0.00;;;;;;;-144.99;100.00;67352.69;5032688;28;20187;-88
2023/10/12 11:59:27;;;;;;;2.23;2.03;;;;;;;-144.99;100.00;67352.69;5034488;28;20657;-87
2023/10/12 12:01:56;;;;;;;0.30;0.30;;;;;;;-144.99;100.00;67352.69;5036726;28;20192;-87
2023/10/12 12:04:32;;;;;;;0.00;0.00;;;;;;;-144.99;100.00;67352.69;5038886;28;20763;-88
2023/10/12 12:06:59;;;;;;;0.40;0.40;;;;;;;-144.99;100.00;67352.69;5042075;28;20179;-88
2023/10/12 12:09:27;;;;;;;0.00;0.00;;;;;;;-144.99;100.00;67352.69;5043921;28;20203;-87
2023/10/12 12:11:53;;;;;;;0.00;0.00;;;;;;;-144.99;100.00;67352.69;5054464;28;20191;-87
2023/10/12 12:14:19;;;;;;;0.00;0.00;;;;;;;-144.99;100.00;67352.69;5055438;28;20234;-87
2023/10/12 12:16:44;;;;;;;0.00;0.00;;;;;;;-144.99;100.00;67352.69;5056223;28;20186;-90
2023/10/12 12:19:17;;;;;;;0.10;0.10;;;;;;;-144.99;100.00;67352.69;5054640;28;20203;-86
2023/10/12 12:21:45;;;;;;;0.00;0.00;;;;;;;-144.99;100.00;67352.69;5030157;28;20222;-85
2023/10/12 12:24:24;;;;;;;0.00;0.00;;;;;;;-144.99;100.00;67352.69;5027541;28;20204;-86
2023/10/12 12:26:52;;;;;;;0.00;0.00;;;;;;;-144.99;100.00;67352.69;5030881;28;20283;-85
2023/10/12 12:29:26;;;;;;;0.00;0.00;;;;;;;-144.99;100.00;67352.69;5024760;28;20184;-87
2023/10/12 12:31:53;;;;;;;0.00;0.00;;;;;;;-144.99;100.00;67352.69;5046676;28;20343;-85
2023/10/12 12:34:38;;;;;;;0.00;0.00;;;;;;;-144.99;100.00;67352.69;5031395;28;20566;-86
2023/10/12 12:37:05;;;;;;;0.00;0.00;;;;;;;-144.99;100.00;67352.69;5024245;28;20695;-86
2023/10/12 12:39:33;;;;;;;0.00;0.00;;;;;;;-144.99;100.00;67352.69;5030812;28;20176;-86
2023/10/12 12:41:58;;;;;;;0.00;0.00;;;;;;;-144.99;100.00;67352.69;5025485;28;20207;-86
2023/10/12 12:44:24;;;;;;;0.00;0.00;;;;;;;-144.99;100.00;67352.69;5031263;28;20255;-86
2023/10/12 12:46:49;;;;;;;0.00;0.00;;;;;;;-144.99;100.00;67352.69;5032281;28;20179;-86
2023/10/12 12:49:15;;;;;;;0.00;0.00;;;;;;;-144.99;100.00;67352.69;5032633;28;20179;-88
2023/10/12 12:51:40;;;;;;;0.00;0.00;;;;;;;-144.99;100.00;67352.69;5031243;28;20410;-85
2023/10/12 12:54:06;;;;;;;0.00;0.00;;;;;;;-144.99;100.00;67352.69;5031064;28;20587;-86
2023/10/12 12:56:31;;;;;;;0.00;0.00;;;;;;;-144.99;100.00;67352.69;5028761;28;20183;-85
2023/10/12 12:58:56;;;;;;;0.00;0.00;;;;;;;-144.99;100.00;67352.69;5031609;28;20184;-85
2023/10/12 13:01:23;;;;;;;0.00;0.00;;;;;;;-144.99;100.00;67352.69;5032180;28;20184;-86
2023/10/12 13:03:52;;;;;;;0.00;0.00;;;;;;;-144.99;100.00;67352.69;5030161;28;20207;-86
2023/10/12 13:06:20;;;;;;;0.00;0.00;;;;;;;-144.99;100.00;67352.69;5033408;28;20242;-86
2023/10/12 13:08:46;;;;;;;0.00;0.00;;;;;;;-144.99;100.00;67352.69;5031872;28;20205;-88
2023/10/12 13:11:16;;;;;;;0.00;0.00;;;;;;;-144.99;100.00;67352.69;5034350;28;20645;-85
2023/10/12 13:13:42;;;;;;;0.00;0.00;;;;;;;-144.99;100.00;67352.69;5036238;28;20709;-86
2023/10/12 13:16:12;;;;;;;0.00;0.00;;;;;;;-144.99;100.00;67352.69;5036045;28;20208;-85
2023/10/12 13:18:38;;;;;;;0.00;0.00;;;;;;;-144.99;100.00;67352.69;5035222;28;20282;-86
2023/10/12 13:21:06;;;;;;;0.00;0.00;;;;;;;-144.99;100.00;67352.69;5037303;28;20272;-86
2023/10/12 13:23:33;;;;;;;0.00;0.00;;;;;;;-144.99;100.00;67352.69;5034917;28;20203;-86
2023/10/12 13:26:08;;;;;;;0.00;0.00;;;;;;;-144.99;100.00;67352.69;5027439;28;20237;-86
2023/10/12 13:28:34;;;;;;;0.00;0.00;;;;;;;-144.99;100.00;67352.69;5035259;28;20225;-86
2023/10/12 13:31:04;;;;;;;0.00;0.00;;;;;;;-144.99;100.00;67352.69;5035023;28;20188;-86
2023/10/12 13:33:34;;;;;;;0.00;0.00;;;;;;;-144.99;100.00;67352.69;5035153;28;20215;-86
2023/10/12 13:36:04;;;;;;;0.00;0.00;;;;;;;-144.99;100.00;67352.69;5035023;28;20196;-86